North Manheim, Pennsylvania
Current Conditions -  °F | °C
As of 12:34 PM on Thursday 27 Nov 2014 (Local Time) from KMUI Reporting Station
Overcast Overcast  
Wind Chill: 32°   Ceiling: 2300
Heat Index: 36°   Visibility: 10mi
Dew Point: 27°   Wind: 5mph
Humidity: 70%   Direction: 290°WNW
Pressure: 30.03"   Gusts: NA
Location:  40.6882°N, 76.264°W
Report Text: KMUI 271734Z AUTO 29004KT 10SM BKN023 OVC050 02/M03 A3003 RMK AO2 CIG 023V055 BKN V SCT $
Loading
Personal Weather Stations






























Interactive Weather Map New forecast layout! Learn more

10-Day Weather Forecast

Advertisements
Track Severe Weather on mobile